Time;durP1;ratioP1;P1;durP2;ratioP2;P2;SDS_P1;SDS_P2;PMS_P1;PMS_P2;Temp;Humidity;BMP_temperature;BMP_pressure;BME280_temperature;BME280_humidity;BME280_pressure;Samples;Min_cycle;Max_cycle;Signal;HPM_P1;HPM_P2
2022/12/13 00:02:28;;;;;;;17.67;10.03;;;;;;;;;;10406358;28;20326;-57
2022/12/13 00:07:29;;;;;;;19.97;11.53;;;;;;;;;;10406136;28;20206;-60
2022/12/13 00:12:29;;;;;;;18.73;9.80;;;;;;;;;;10406061;28;20521;-62
2022/12/13 00:17:30;;;;;;;18.90;10.00;;;;;;;;;;10406371;28;20208;-58
2022/12/13 00:22:30;;;;;;;19.00;10.47;;;;;;;;;;10405265;28;20537;-61
2022/12/13 00:27:30;;;;;;;22.33;10.90;;;;;;;;;;10406157;28;20255;-59
2022/12/13 00:32:31;;;;;;;23.00;12.00;;;;;;;;;;10387654;28;20743;-61
2022/12/13 00:37:31;;;;;;;19.20;10.47;;;;;;;;;;10404713;28;20808;-62
2022/12/13 00:42:31;;;;;;;21.07;11.40;;;;;;;;;;10405375;28;20212;-62
2022/12/13 00:47:31;;;;;;;18.90;10.20;;;;;;;;;;10404332;28;20604;-64
2022/12/13 00:52:34;;;;;;;22.67;11.73;;;;;;;;;;10404728;28;20196;-62
2022/12/13 00:57:35;;;;;;;24.13;11.13;;;;;;;;;;10404444;28;20233;-60
2022/12/13 01:02:36;;;;;;;21.10;11.30;;;;;;;;;;10404019;28;20825;-57
2022/12/13 01:07:37;;;;;;;24.17;12.23;;;;;;;;;;10403889;28;20204;-62
2022/12/13 01:12:37;;;;;;;26.83;12.60;;;;;;;;;;10409445;28;20185;-59
2022/12/13 01:17:37;;;;;;;22.83;12.13;;;;;;;;;;10409921;28;20605;-61
2022/12/13 01:22:37;;;;;;;27.10;11.90;;;;;;;;;;10409735;28;20291;-59
2022/12/13 01:27:38;;;;;;;22.17;11.30;;;;;;;;;;10410761;28;20499;-59
2022/12/13 01:32:38;;;;;;;19.53;11.03;;;;;;;;;;10410228;28;20263;-58
2022/12/13 01:37:38;;;;;;;25.97;11.90;;;;;;;;;;10410225;28;20764;-61
2022/12/13 01:42:38;;;;;;;28.73;12.30;;;;;;;;;;10410165;28;20227;-60
2022/12/13 01:47:39;;;;;;;25.03;13.53;;;;;;;;;;10409535;28;20236;-57
2022/12/13 01:52:39;;;;;;;25.47;13.53;;;;;;;;;;10409582;28;20214;-58
2022/12/13 01:57:40;;;;;;;31.08;13.65;;;;;;;;;;10409598;28;20278;-60
2022/12/13 02:02:43;;;;;;;25.93;11.93;;;;;;;;;;10390772;28;20216;-61
2022/12/13 02:07:46;;;;;;;25.37;13.33;;;;;;;;;;10408464;28;20215;-61
2022/12/13 02:12:46;;;;;;;22.93;11.60;;;;;;;;;;10408092;28;20196;-62
2022/12/13 02:17:46;;;;;;;27.03;11.00;;;;;;;;;;10408144;28;20599;-62
2022/12/13 02:23:05;;;;;;;28.03;11.80;;;;;;;;;;10408569;28;20980;-61
2022/12/13 02:28:24;;;;;;;24.40;11.50;;;;;;;;;;10408389;28;20219;-62
2022/12/13 02:33:27;;;;;;;24.40;12.30;;;;;;;;;;10407570;28;20203;-59
2022/12/13 02:38:49;;;;;;;23.37;11.20;;;;;;;;;;10408649;28;20211;-61
2022/12/13 02:43:53;;;;;;;22.70;11.60;;;;;;;;;;10408137;28;20247;-59
2022/12/13 02:48:55;;;;;;;29.20;12.47;;;;;;;;;;10407569;28;20257;-61
2022/12/13 02:53:55;;;;;;;29.97;14.07;;;;;;;;;;10407949;28;20281;-62
2022/12/13 02:58:56;;;;;;;22.60;11.77;;;;;;;;;;10407997;28;20739;-59
2022/12/13 03:04:02;;;;;;;31.63;12.83;;;;;;;;;;10392994;28;20881;-60
2022/12/13 03:09:15;;;;;;;24.20;11.63;;;;;;;;;;10366683;28;20193;-56
2022/12/13 03:14:19;;;;;;;18.33;9.27;;;;;;;;;;10365409;28;20205;-60
2022/12/13 03:19:19;;;;;;;18.00;9.57;;;;;;;;;;10365707;28;20208;-59
2022/12/13 03:24:20;;;;;;;16.50;7.88;;;;;;;;;;10366021;28;20231;-61
2022/12/13 03:29:20;;;;;;;20.43;9.80;;;;;;;;;;10365546;28;20196;-61
2022/12/13 03:34:20;;;;;;;17.20;7.97;;;;;;;;;;10364181;28;20212;-61
2022/12/13 03:39:21;;;;;;;18.60;8.93;;;;;;;;;;10365410;28;20436;-60
2022/12/13 03:44:21;;;;;;;16.77;9.87;;;;;;;;;;10362904;28;20494;-60
2022/12/13 03:49:22;;;;;;;13.40;6.32;;;;;;;;;;10362774;28;20571;-62
2022/12/13 03:54:22;;;;;;;18.55;10.32;;;;;;;;;;10365284;28;20232;-60
2022/12/13 03:59:22;;;;;;;5.53;3.37;;;;;;;;;;10364950;28;20189;-61
2022/12/13 04:04:22;;;;;;;14.53;7.40;;;;;;;;;;10360248;28;20837;-61
2022/12/13 04:09:23;;;;;;;11.27;5.80;;;;;;;;;;10358125;28;20497;-62
2022/12/13 04:14:23;;;;;;;11.55;5.13;;;;;;;;;;10357085;28;20219;-62
2022/12/13 04:19:23;;;;;;;14.07;7.10;;;;;;;;;;10358076;28;20201;-62
2022/12/13 04:24:24;;;;;;;15.37;7.60;;;;;;;;;;10358704;28;20524;-61
2022/12/13 04:29:24;;;;;;;21.90;9.07;;;;;;;;;;10357863;28;20564;-60
2022/12/13 04:34:24;;;;;;;14.57;7.03;;;;;;;;;;10358067;28;20220;-60
2022/12/13 04:39:25;;;;;;;4.05;3.25;;;;;;;;;;10358193;28;20806;-61
2022/12/13 04:44:25;;;;;;;16.00;9.17;;;;;;;;;;10357769;28;20719;-64
2022/12/13 04:49:25;;;;;;;17.25;9.10;;;;;;;;;;10365452;28;20444;-62
2022/12/13 04:54:25;;;;;;;13.60;7.13;;;;;;;;;;10365811;28;20295;-62
2022/12/13 04:59:25;;;;;;;11.37;7.20;;;;;;;;;;10364568;28;20228;-61
2022/12/13 05:04:26;;;;;;;14.87;7.27;;;;;;;;;;10370430;28;20477;-61
2022/12/13 05:09:27;;;;;;;11.00;5.93;;;;;;;;;;10371741;28;20254;-61
2022/12/13 05:14:28;;;;;;;5.72;3.58;;;;;;;;;;10370618;28;20455;-61
2022/12/13 05:19:29;;;;;;;12.10;5.67;;;;;;;;;;10371679;28;20684;-61
2022/12/13 05:24:30;;;;;;;8.10;4.40;;;;;;;;;;10371289;28;20269;-61
2022/12/13 05:29:30;;;;;;;5.80;3.50;;;;;;;;;;10370954;28;20187;-62
2022/12/13 05:34:30;;;;;;;6.93;3.53;;;;;;;;;;10370316;28;20216;-62
2022/12/13 05:39:31;;;;;;;7.40;4.40;;;;;;;;;;10370532;28;20441;-62
2022/12/13 05:44:31;;;;;;;9.50;4.37;;;;;;;;;;10370085;28;20493;-62
2022/12/13 05:49:31;;;;;;;5.30;3.23;;;;;;;;;;10370080;28;20423;-62
2022/12/13 05:54:31;;;;;;;5.00;3.20;;;;;;;;;;10370118;28;20622;-61
2022/12/13 05:59:32;;;;;;;2.60;2.00;;;;;;;;;;10369025;28;20275;-62
2022/12/13 06:04:32;;;;;;;4.07;2.33;;;;;;;;;;10369981;28;20605;-61
2022/12/13 06:09:32;;;;;;;7.88;4.35;;;;;;;;;;10370275;28;20448;-61
2022/12/13 06:14:32;;;;;;;6.93;4.53;;;;;;;;;;10369363;28;20272;-62
2022/12/13 06:19:35;;;;;;;4.17;2.90;;;;;;;;;;10369733;28;20434;-62
2022/12/13 06:24:35;;;;;;;8.73;4.50;;;;;;;;;;10369110;28;20224;-62
2022/12/13 06:29:35;;;;;;;5.13;3.20;;;;;;;;;;10368747;28;20440;-61
2022/12/13 06:34:35;;;;;;;3.67;2.37;;;;;;;;;;10368958;28;20211;-62
2022/12/13 06:39:36;;;;;;;8.13;3.60;;;;;;;;;;10368468;28;20434;-61
2022/12/13 06:44:36;;;;;;;4.85;2.70;;;;;;;;;;10368627;28;20331;-61
2022/12/13 06:49:37;;;;;;;4.60;2.77;;;;;;;;;;10366600;28;20266;-62
2022/12/13 06:54:38;;;;;;;5.17;2.70;;;;;;;;;;10366435;28;20224;-62
2022/12/13 06:59:38;;;;;;;5.23;3.20;;;;;;;;;;10382920;28;20203;-61
2022/12/13 07:04:39;;;;;;;5.43;3.73;;;;;;;;;;10408718;28;20211;-60
2022/12/13 07:09:39;;;;;;;12.25;5.93;;;;;;;;;;10407935;28;20191;-62
2022/12/13 07:14:39;;;;;;;11.18;6.88;;;;;;;;;;10408894;28;20237;-61
2022/12/13 07:19:39;;;;;;;19.17;8.02;;;;;;;;;;10408674;28;20190;-62
2022/12/13 07:24:39;;;;;;;18.07;7.47;;;;;;;;;;10407524;28;20267;-62
2022/12/13 07:29:40;;;;;;;18.70;7.50;;;;;;;;;;10408699;28;21074;-62
2022/12/13 07:34:40;;;;;;;6.50;3.80;;;;;;;;;;10406841;28;20222;-62
2022/12/13 07:39:40;;;;;;;8.32;4.53;;;;;;;;;;10407341;28;20437;-60
2022/12/13 07:44:40;;;;;;;11.33;6.03;;;;;;;;;;10352440;28;20356;-61
2022/12/13 07:49:41;;;;;;;9.07;4.07;;;;;;;;;;10363056;28;20462;-61
2022/12/13 07:54:41;;;;;;;8.47;4.23;;;;;;;;;;10361005;28;20306;-62
2022/12/13 07:59:42;;;;;;;5.77;2.97;;;;;;;;;;10363907;28;20188;-62
2022/12/13 08:04:42;;;;;;;9.47;4.83;;;;;;;;;;10362301;28;20772;-62
2022/12/13 08:09:43;;;;;;;6.77;3.67;;;;;;;;;;10362038;28;20450;-61
2022/12/13 08:14:43;;;;;;;8.63;3.65;;;;;;;;;;10362001;28;20294;-62
2022/12/13 08:19:43;;;;;;;8.30;4.37;;;;;;;;;;10355922;28;20770;-62
2022/12/13 08:24:43;;;;;;;7.03;3.00;;;;;;;;;;10370771;28;20462;-60
2022/12/13 08:29:43;;;;;;;8.07;3.97;;;;;;;;;;10369925;28;20205;-58
2022/12/13 08:34:44;;;;;;;6.00;3.60;;;;;;;;;;10369596;28;20232;-60
2022/12/13 08:39:44;;;;;;;6.73;2.83;;;;;;;;;;10370796;28;20469;-60
2022/12/13 08:44:48;;;;;;;3.83;2.27;;;;;;;;;;10369663;28;20233;-60
2022/12/13 08:49:48;;;;;;;6.57;3.60;;;;;;;;;;10355942;28;20283;-60
2022/12/13 08:54:49;;;;;;;6.73;3.67;;;;;;;;;;10384811;28;20232;-61
2022/12/13 08:59:49;;;;;;;1.70;1.60;;;;;;;;;;10385455;28;20220;-58
2022/12/13 09:04:49;;;;;;;2.53;1.92;;;;;;;;;;10383866;28;20262;-58
2022/12/13 09:09:49;;;;;;;3.13;1.87;;;;;;;;;;10400661;28;20200;-59
2022/12/13 09:14:50;;;;;;;5.70;3.20;;;;;;;;;;10402875;28;20564;-57
2022/12/13 09:19:50;;;;;;;5.37;2.40;;;;;;;;;;10405380;28;20494;-60
2022/12/13 09:24:50;;;;;;;4.37;2.90;;;;;;;;;;10387992;28;20452;-60
2022/12/13 09:29:51;;;;;;;2.43;2.20;;;;;;;;;;10387737;28;20966;-59
2022/12/13 09:34:51;;;;;;;4.03;2.90;;;;;;;;;;10375874;28;20215;-61
2022/12/13 09:39:51;;;;;;;4.87;3.03;;;;;;;;;;10382960;28;20676;-63
2022/12/13 09:44:53;;;;;;;14.23;9.80;;;;;;;;;;10366035;28;20487;-61
2022/12/13 09:49:54;;;;;;;10.00;4.60;;;;;;;;;;10367868;28;20442;-63
2022/12/13 09:54:56;;;;;;;6.43;4.50;;;;;;;;;;10367051;28;20591;-61
2022/12/13 09:59:56;;;;;;;9.00;5.57;;;;;;;;;;10365089;28;20277;-62
2022/12/13 10:05:13;;;;;;;7.90;4.28;;;;;;;;;;10366247;28;20208;-62
2022/12/13 10:10:16;;;;;;;7.67;3.70;;;;;;;;;;10368645;28;20640;-64
2022/12/13 10:15:18;;;;;;;5.07;3.20;;;;;;;;;;10367416;28;20223;-64
2022/12/13 10:20:19;;;;;;;12.40;6.83;;;;;;;;;;10365995;28;20678;-66
2022/12/13 10:25:44;;;;;;;18.80;9.43;;;;;;;;;;10366030;28;20217;-65
2022/12/13 10:30:49;;;;;;;19.40;11.30;;;;;;;;;;10367121;28;20207;-64
2022/12/13 10:36:05;;;;;;;16.23;9.17;;;;;;;;;;10365258;28;20604;-64
2022/12/13 10:41:46;;;;;;;14.83;10.47;;;;;;;;;;10365726;28;20283;-66
2022/12/13 10:47:01;;;;;;;9.67;6.90;;;;;;;;;;10165853;29;20810;-65
2022/12/13 10:52:01;;;;;;;10.23;5.60;;;;;;;;;;10296922;28;20209;-64
2022/12/13 10:57:02;;;;;;;7.57;4.83;;;;;;;;;;10334289;28;20639;-65
2022/12/13 11:02:22;;;;;;;6.25;4.18;;;;;;;;;;10363650;28;20647;-64
2022/12/13 11:07:24;;;;;;;6.70;5.23;;;;;;;;;;10386836;28;21026;-65
2022/12/13 11:12:27;;;;;;;7.03;5.27;;;;;;;;;;10404975;28;20679;-64
2022/12/13 11:17:29;;;;;;;4.50;2.93;;;;;;;;;;10423253;28;20200;-65
2022/12/13 11:22:31;;;;;;;5.13;3.57;;;;;;;;;;10405720;28;20230;-66
2022/12/13 11:27:37;;;;;;;14.43;8.63;;;;;;;;;;10405807;28;20201;-65
2022/12/13 11:32:45;;;;;;;3.60;2.73;;;;;;;;;;10372242;28;20224;-66
2022/12/13 11:37:45;;;;;;;5.20;3.53;;;;;;;;;;10364888;28;20288;-63
2022/12/13 11:42:52;;;;;;;3.60;2.97;;;;;;;;;;10363789;28;20704;-63
2022/12/13 11:47:52;;;;;;;4.80;2.60;;;;;;;;;;10363143;28;20487;-65
2022/12/13 11:52:54;;;;;;;6.47;4.03;;;;;;;;;;10325457;28;20197;-65
2022/12/13 11:58:06;;;;;;;4.63;2.63;;;;;;;;;;10325306;28;20626;-63
2022/12/13 12:03:13;;;;;;;18.23;9.17;;;;;;;;;;10338260;28;20748;-64
2022/12/13 12:08:21;;;;;;;20.17;10.80;;;;;;;;;;10363115;28;20244;-64
2022/12/13 12:13:28;;;;;;;29.93;14.90;;;;;;;;;;10362907;28;20221;-64
2022/12/13 12:18:28;;;;;;;17.60;8.27;;;;;;;;;;10362344;28;20197;-63
2022/12/13 12:23:54;;;;;;;7.27;4.67;;;;;;;;;;10362540;28;20224;-63
2022/12/13 12:29:01;;;;;;;9.90;5.13;;;;;;;;;;10348965;28;20193;-62
2022/12/13 12:34:14;;;;;;;3.63;2.70;;;;;;;;;;10361828;28;20220;-62
2022/12/13 12:39:25;;;;;;;6.13;3.20;;;;;;;;;;10362031;28;20193;-62
2022/12/13 12:44:37;;;;;;;11.97;7.00;;;;;;;;;;10362073;28;20332;-62
2022/12/13 12:49:52;;;;;;;8.77;5.77;;;;;;;;;;10362726;28;20205;-61
2022/12/13 12:54:52;;;;;;;10.17;6.03;;;;;;;;;;10356617;28;20748;-61
2022/12/13 12:59:59;;;;;;;6.93;4.83;;;;;;;;;;10399399;28;20234;-60
2022/12/13 13:05:05;;;;;;;7.60;4.90;;;;;;;;;;10403111;28;20311;-60
2022/12/13 13:10:07;;;;;;;5.27;3.43;;;;;;;;;;10368309;28;20198;-60
2022/12/13 13:15:26;;;;;;;5.83;3.60;;;;;;;;;;10367845;28;20232;-61
2022/12/13 13:20:27;;;;;;;5.50;3.93;;;;;;;;;;10370395;28;20185;-61
2022/12/13 13:25:32;;;;;;;4.23;3.17;;;;;;;;;;10394298;28;20251;-59
2022/12/13 13:30:32;;;;;;;6.03;3.20;;;;;;;;;;10409767;28;20181;-60
2022/12/13 13:35:36;;;;;;;6.03;4.17;;;;;;;;;;10409238;28;20215;-61
2022/12/13 13:40:39;;;;;;;7.93;5.17;;;;;;;;;;10380048;28;20205;-61
2022/12/13 13:45:52;;;;;;;12.37;5.40;;;;;;;;;;10369813;28;20298;-62
2022/12/13 13:51:12;;;;;;;6.80;5.03;;;;;;;;;;10367471;28;20272;-63
2022/12/13 13:56:31;;;;;;;10.83;7.37;;;;;;;;;;10365946;28;20696;-61
2022/12/13 14:01:58;;;;;;;11.07;7.03;;;;;;;;;;10366722;28;20195;-62
2022/12/13 14:07:17;;;;;;;11.73;6.77;;;;;;;;;;10365176;28;20232;-65
2022/12/13 14:12:34;;;;;;;23.03;11.10;;;;;;;;;;10366687;28;20275;-64
2022/12/13 14:17:52;;;;;;;14.60;9.13;;;;;;;;;;10366528;28;20687;-60
2022/12/13 14:22:58;;;;;;;15.17;9.10;;;;;;;;;;10366044;28;20739;-62
2022/12/13 14:28:20;;;;;;;16.60;8.67;;;;;;;;;;10366415;28;20571;-65
2022/12/13 14:33:21;;;;;;;22.53;10.87;;;;;;;;;;10381301;28;20186;-65
2022/12/13 14:38:25;;;;;;;16.27;9.50;;;;;;;;;;10367969;28;20265;-64
2022/12/13 14:43:27;;;;;;;15.13;9.20;;;;;;;;;;10374051;28;20205;-63
2022/12/13 14:48:29;;;;;;;15.03;8.87;;;;;;;;;;10406739;28;20232;-64
2022/12/13 14:53:36;;;;;;;15.83;9.17;;;;;;;;;;10404800;28;20200;-63
2022/12/13 14:58:37;;;;;;;17.10;8.67;;;;;;;;;;10389264;28;20195;-63
2022/12/13 15:03:37;;;;;;;17.30;9.67;;;;;;;;;;10383053;28;20919;-62
2022/12/13 15:08:37;;;;;;;16.13;7.53;;;;;;;;;;10378024;28;20189;-64
2022/12/13 15:13:42;;;;;;;13.17;7.03;;;;;;;;;;10374912;28;20436;-63
2022/12/13 15:18:42;;;;;;;12.57;7.53;;;;;;;;;;10363595;28;20460;-62
2022/12/13 15:23:51;;;;;;;13.97;7.43;;;;;;;;;;10363794;28;20274;-61
2022/12/13 15:28:56;;;;;;;16.93;7.53;;;;;;;;;;10363049;28;20248;-63
2022/12/13 15:34:16;;;;;;;18.20;8.90;;;;;;;;;;10363370;28;21122;-61
2022/12/13 15:39:16;;;;;;;15.27;8.53;;;;;;;;;;10363103;28;20196;-64
2022/12/13 15:44:31;;;;;;;20.93;9.20;;;;;;;;;;10362817;28;20731;-64
2022/12/13 15:49:34;;;;;;;25.03;8.60;;;;;;;;;;10356123;28;20197;-64
2022/12/13 15:54:34;;;;;;;13.13;7.27;;;;;;;;;;10363142;28;20220;-64
2022/12/13 15:59:34;;;;;;;14.13;6.23;;;;;;;;;;10340759;28;20681;-63
2022/12/13 16:04:34;;;;;;;10.47;5.83;;;;;;;;;;10380087;28;20486;-62
2022/12/13 16:09:37;;;;;;;12.67;6.07;;;;;;;;;;10378075;28;20189;-64
2022/12/13 16:14:41;;;;;;;9.77;4.57;;;;;;;;;;10363245;28;20550;-62
2022/12/13 16:19:42;;;;;;;12.73;6.33;;;;;;;;;;10335904;28;20213;-62
2022/12/13 16:24:42;;;;;;;13.17;7.10;;;;;;;;;;10359044;28;20224;-62
2022/12/13 16:29:43;;;;;;;6.80;4.60;;;;;;;;;;10357828;28;20192;-63
2022/12/13 16:34:43;;;;;;;8.47;3.87;;;;;;;;;;10355684;28;20287;-63
2022/12/13 16:39:44;;;;;;;14.03;7.53;;;;;;;;;;10359108;28;20268;-63
2022/12/13 16:44:45;;;;;;;16.70;9.37;;;;;;;;;;10365558;28;20578;-63
2022/12/13 16:49:46;;;;;;;12.90;5.90;;;;;;;;;;10364386;28;20178;-62
2022/12/13 16:54:47;;;;;;;12.67;6.60;;;;;;;;;;10385070;22;20314;-62
2022/12/13 16:59:47;;;;;;;10.70;6.77;;;;;;;;;;10322822;28;20468;-61
2022/12/13 17:04:48;;;;;;;12.40;6.00;;;;;;;;;;10345314;28;20315;-61
2022/12/13 17:09:48;;;;;;;22.97;10.30;;;;;;;;;;10366838;28;20201;-60
2022/12/13 17:14:48;;;;;;;8.93;4.93;;;;;;;;;;10366429;28;20240;-58
2022/12/13 17:19:48;;;;;;;14.87;6.83;;;;;;;;;;10368639;28;20186;-58
2022/12/13 17:24:49;;;;;;;17.80;6.10;;;;;;;;;;10366439;28;20220;-61
2022/12/13 17:29:49;;;;;;;9.67;5.73;;;;;;;;;;10367072;28;20575;-60
2022/12/13 17:34:50;;;;;;;8.98;4.95;;;;;;;;;;10364696;28;20201;-61
2022/12/13 17:39:50;;;;;;;14.70;9.03;;;;;;;;;;10366391;28;20201;-61
2022/12/13 17:44:50;;;;;;;21.53;9.23;;;;;;;;;;10362235;28;20707;-61
2022/12/13 17:49:51;;;;;;;22.13;11.73;;;;;;;;;;10363153;28;20444;-61
2022/12/13 17:54:51;;;;;;;22.53;11.83;;;;;;;;;;10333548;28;20531;-63
2022/12/13 17:59:51;;;;;;;20.97;10.60;;;;;;;;;;10365535;28;20667;-61
2022/12/13 18:04:51;;;;;;;18.47;8.80;;;;;;;;;;10367109;28;20283;-62
2022/12/13 18:09:52;;;;;;;8.97;5.53;;;;;;;;;;10370183;28;20482;-62
2022/12/13 18:14:53;;;;;;;22.07;8.20;;;;;;;;;;10365736;28;20209;-61
2022/12/13 18:19:53;;;;;;;16.43;6.60;;;;;;;;;;10366193;28;20216;-61
2022/12/13 18:24:53;;;;;;;18.27;8.73;;;;;;;;;;10365694;28;20217;-62
2022/12/13 18:29:53;;;;;;;16.00;8.17;;;;;;;;;;10367381;28;20247;-62
2022/12/13 18:34:54;;;;;;;14.63;8.13;;;;;;;;;;10368492;28;20212;-61
2022/12/13 18:39:54;;;;;;;13.50;7.30;;;;;;;;;;10367831;28;20727;-61
2022/12/13 18:44:54;;;;;;;21.77;10.83;;;;;;;;;;10367235;28;20240;-60
2022/12/13 18:49:55;;;;;;;20.63;9.03;;;;;;;;;;10367929;28;20530;-64
2022/12/13 18:54:55;;;;;;;16.43;8.67;;;;;;;;;;10367047;28;20240;-63
2022/12/13 18:59:55;;;;;;;19.17;8.00;;;;;;;;;;10367011;28;20452;-62
2022/12/13 19:04:55;;;;;;;15.37;8.53;;;;;;;;;;10365542;28;20520;-61
2022/12/13 19:09:55;;;;;;;13.40;7.77;;;;;;;;;;10366958;28;20522;-62
2022/12/13 19:14:56;;;;;;;22.23;9.10;;;;;;;;;;10364142;28;20571;-62
2022/12/13 19:19:56;;;;;;;15.33;6.57;;;;;;;;;;10366637;28;20544;-62
2022/12/13 19:24:56;;;;;;;10.30;5.87;;;;;;;;;;10365879;28;21318;-61
2022/12/13 19:29:56;;;;;;;10.33;4.93;;;;;;;;;;10363629;28;20188;-60
2022/12/13 19:34:56;;;;;;;12.63;6.13;;;;;;;;;;10365631;28;20459;-62
2022/12/13 19:39:57;;;;;;;9.80;4.10;;;;;;;;;;10365224;28;21353;-61
2022/12/13 19:44:57;;;;;;;10.67;5.50;;;;;;;;;;10363735;28;20224;-61
2022/12/13 19:49:57;;;;;;;10.83;5.73;;;;;;;;;;10364306;28;20687;-61
2022/12/13 19:54:58;;;;;;;7.20;3.97;;;;;;;;;;10364860;28;20300;-61
2022/12/13 19:59:58;;;;;;;15.53;7.10;;;;;;;;;;10363651;28;20444;-60
2022/12/13 20:04:58;;;;;;;6.43;3.33;;;;;;;;;;10363274;28;20217;-61
2022/12/13 20:09:58;;;;;;;7.07;4.80;;;;;;;;;;10365134;28;20506;-61
2022/12/13 20:15:01;;;;;;;18.10;7.87;;;;;;;;;;10363980;28;20463;-61
2022/12/13 20:20:02;;;;;;;14.00;6.50;;;;;;;;;;10364836;28;20181;-61
2022/12/13 20:25:03;;;;;;;8.57;5.03;;;;;;;;;;10364236;28;20293;-60
2022/12/13 20:30:04;;;;;;;8.37;5.33;;;;;;;;;;10364187;28;20713;-61
2022/12/13 20:35:04;;;;;;;19.13;11.47;;;;;;;;;;10362129;28;20215;-59
2022/12/13 20:40:05;;;;;;;17.13;11.30;;;;;;;;;;10364748;28;20264;-61
2022/12/13 20:45:05;;;;;;;7.90;4.60;;;;;;;;;;10363071;28;20766;-60
2022/12/13 20:50:06;;;;;;;10.07;4.33;;;;;;;;;;10364506;28;20192;-59
2022/12/13 20:55:06;;;;;;;7.97;4.07;;;;;;;;;;10362647;28;20990;-61
2022/12/13 21:00:07;;;;;;;11.37;5.60;;;;;;;;;;10365112;28;20208;-61
2022/12/13 21:05:07;;;;;;;16.33;6.23;;;;;;;;;;10364649;28;20224;-61
2022/12/13 21:10:08;;;;;;;13.33;6.47;;;;;;;;;;10364305;28;20198;-61
2022/12/13 21:15:08;;;;;;;12.83;6.83;;;;;;;;;;10364595;28;20263;-61
2022/12/13 21:20:08;;;;;;;13.38;7.05;;;;;;;;;;10364859;28;20217;-63
2022/12/13 21:25:08;;;;;;;16.37;6.73;;;;;;;;;;10363315;28;20223;-61
2022/12/13 21:30:09;;;;;;;11.53;6.40;;;;;;;;;;10370169;28;20200;-60
2022/12/13 21:35:10;;;;;;;8.53;4.07;;;;;;;;;;10371214;28;20466;-61
2022/12/13 21:40:12;;;;;;;14.17;7.10;;;;;;;;;;10371186;28;20189;-61
2022/12/13 21:45:12;;;;;;;13.32;6.90;;;;;;;;;;10370770;28;20228;-63
2022/12/13 21:50:12;;;;;;;14.20;6.13;;;;;;;;;;10371471;28;20228;-62
2022/12/13 21:55:13;;;;;;;12.67;6.53;;;;;;;;;;10369996;28;20617;-62
2022/12/13 22:00:13;;;;;;;11.30;6.27;;;;;;;;;;10370962;28;20451;-64
2022/12/13 22:05:14;;;;;;;7.23;3.97;;;;;;;;;;10370250;28;20468;-64
2022/12/13 22:10:14;;;;;;;16.30;6.85;;;;;;;;;;10369896;28;20189;-63
2022/12/13 22:15:14;;;;;;;15.82;7.80;;;;;;;;;;10370459;28;20212;-64
2022/12/13 22:20:14;;;;;;;14.20;6.10;;;;;;;;;;10370158;28;20201;-61
2022/12/13 22:25:15;;;;;;;5.63;3.53;;;;;;;;;;10368509;28;20852;-63
2022/12/13 22:30:15;;;;;;;6.70;3.65;;;;;;;;;;10370466;28;20177;-61
2022/12/13 22:35:15;;;;;;;13.07;6.22;;;;;;;;;;10368598;28;20240;-64
2022/12/13 22:40:16;;;;;;;8.43;4.03;;;;;;;;;;10369294;28;20185;-61
2022/12/13 22:45:16;;;;;;;4.40;3.30;;;;;;;;;;10368482;28;20307;-63
2022/12/13 22:50:16;;;;;;;9.67;5.27;;;;;;;;;;10369016;28;20437;-63
2022/12/13 22:55:16;;;;;;;8.30;5.38;;;;;;;;;;10368271;28;20245;-62
2022/12/13 23:00:17;;;;;;;11.20;5.70;;;;;;;;;;10419676;23;20251;-61
2022/12/13 23:05:17;;;;;;;8.93;4.43;;;;;;;;;;10408390;28;20737;-62
2022/12/13 23:15:36;;;;;;;9.20;4.63;;;;;;;;;;10408515;28;20212;-64
2022/12/13 23:20:36;;;;;;;8.63;4.97;;;;;;;;;;10407735;28;20211;-61
2022/12/13 23:25:38;;;;;;;6.90;3.83;;;;;;;;;;10407860;28;20216;-62
2022/12/13 23:30:38;;;;;;;3.10;2.57;;;;;;;;;;10407570;28;20201;-62
2022/12/13 23:35:39;;;;;;;6.50;3.67;;;;;;;;;;10407397;28;21024;-61
2022/12/13 23:40:39;;;;;;;3.10;1.77;;;;;;;;;;10407506;28;20265;-62
2022/12/13 23:45:39;;;;;;;4.97;2.87;;;;;;;;;;10407375;28;20795;-61
2022/12/13 23:50:40;;;;;;;6.63;2.37;;;;;;;;;;10406297;28;20693;-62
2022/12/13 23:55:40;;;;;;;7.20;2.40;;;;;;;;;;10406934;28;20998;-62
